sensor_id;sensor_type;location;lat;lon;timestamp;P1;durP1;ratioP1;P2;durP2;ratioP2
22937;SDS011;11634;42.734;23.298;2024-01-15T00:02:19;142.77;;;79.77;;
22937;SDS011;11634;42.734;23.298;2024-01-15T00:04:45;143.80;;;81.37;;
22937;SDS011;11634;42.734;23.298;2024-01-15T00:07:11;137.63;;;79.83;;
22937;SDS011;11634;42.734;23.298;2024-01-15T00:09:36;146.37;;;83.97;;
22937;SDS011;11634;42.734;23.298;2024-01-15T00:12:05;176.00;;;98.90;;
22937;SDS011;11634;42.734;23.298;2024-01-15T00:14:30;165.77;;;96.50;;
22937;SDS011;11634;42.734;23.298;2024-01-15T00:16:56;159.93;;;92.80;;
22937;SDS011;11634;42.734;23.298;2024-01-15T00:19:24;163.57;;;92.90;;
22937;SDS011;11634;42.734;23.298;2024-01-15T00:21:54;189.83;;;109.17;;
22937;SDS011;11634;42.734;23.298;2024-01-15T00:24:19;213.13;;;116.63;;
22937;SDS011;11634;42.734;23.298;2024-01-15T00:26:45;199.23;;;112.17;;
22937;SDS011;11634;42.734;23.298;2024-01-15T00:29:10;186.07;;;104.37;;
22937;SDS011;11634;42.734;23.298;2024-01-15T00:31:36;192.17;;;106.83;;
22937;SDS011;11634;42.734;23.298;2024-01-15T00:34:01;181.53;;;101.77;;
22937;SDS011;11634;42.734;23.298;2024-01-15T00:36:27;175.37;;;95.33;;
22937;SDS011;11634;42.734;23.298;2024-01-15T00:38:54;159.83;;;93.73;;
22937;SDS011;11634;42.734;23.298;2024-01-15T00:41:20;164.67;;;92.67;;
22937;SDS011;11634;42.734;23.298;2024-01-15T00:43:46;185.77;;;102.67;;
22937;SDS011;11634;42.734;23.298;2024-01-15T00:46:14;184.53;;;107.27;;
22937;SDS011;11634;42.734;23.298;2024-01-15T00:48:44;199.53;;;115.63;;
22937;SDS011;11634;42.734;23.298;2024-01-15T00:51:15;203.50;;;112.30;;
22937;SDS011;11634;42.734;23.298;2024-01-15T00:53:41;183.17;;;107.33;;
22937;SDS011;11634;42.734;23.298;2024-01-15T00:56:18;182.30;;;104.83;;
22937;SDS011;11634;42.734;23.298;2024-01-15T00:58:53;184.77;;;97.87;;
22937;SDS011;11634;42.734;23.298;2024-01-15T01:01:18;168.63;;;94.33;;
22937;SDS011;11634;42.734;23.298;2024-01-15T01:03:46;177.03;;;94.73;;
22937;SDS011;11634;42.734;23.298;2024-01-15T01:06:12;167.30;;;93.97;;
22937;SDS011;11634;42.734;23.298;2024-01-15T01:08:38;162.20;;;92.67;;
22937;SDS011;11634;42.734;23.298;2024-01-15T01:11:03;159.60;;;86.63;;
22937;SDS011;11634;42.734;23.298;2024-01-15T01:13:29;162.23;;;92.37;;
22937;SDS011;11634;42.734;23.298;2024-01-15T01:15:54;161.67;;;89.90;;
22937;SDS011;11634;42.734;23.298;2024-01-15T01:18:20;153.43;;;85.70;;
22937;SDS011;11634;42.734;23.298;2024-01-15T01:20:46;154.77;;;90.37;;
22937;SDS011;11634;42.734;23.298;2024-01-15T01:23:12;165.83;;;90.30;;
22937;SDS011;11634;42.734;23.298;2024-01-15T01:25:37;164.83;;;91.33;;
22937;SDS011;11634;42.734;23.298;2024-01-15T01:28:03;165.57;;;91.93;;
22937;SDS011;11634;42.734;23.298;2024-01-15T01:30:29;161.97;;;90.33;;
22937;SDS011;11634;42.734;23.298;2024-01-15T01:32:55;170.33;;;92.43;;
22937;SDS011;11634;42.734;23.298;2024-01-15T01:35:21;159.97;;;90.60;;
22937;SDS011;11634;42.734;23.298;2024-01-15T01:37:49;169.87;;;91.97;;
22937;SDS011;11634;42.734;23.298;2024-01-15T01:40:14;172.03;;;94.73;;
22937;SDS011;11634;42.734;23.298;2024-01-15T01:42:44;167.67;;;93.50;;
22937;SDS011;11634;42.734;23.298;2024-01-15T01:45:10;162.93;;;89.27;;
22937;SDS011;11634;42.734;23.298;2024-01-15T01:47:37;159.20;;;90.27;;
22937;SDS011;11634;42.734;23.298;2024-01-15T01:50:03;168.23;;;93.47;;
22937;SDS011;11634;42.734;23.298;2024-01-15T01:52:30;167.50;;;93.43;;
22937;SDS011;11634;42.734;23.298;2024-01-15T01:54:55;162.20;;;92.70;;
22937;SDS011;11634;42.734;23.298;2024-01-15T01:57:21;168.83;;;92.17;;
22937;SDS011;11634;42.734;23.298;2024-01-15T01:59:47;155.87;;;90.00;;
22937;SDS011;11634;42.734;23.298;2024-01-15T02:02:13;158.63;;;88.03;;
22937;SDS011;11634;42.734;23.298;2024-01-15T02:04:39;168.13;;;93.20;;
22937;SDS011;11634;42.734;23.298;2024-01-15T02:07:04;150.00;;;86.53;;
22937;SDS011;11634;42.734;23.298;2024-01-15T02:09:30;151.40;;;84.50;;
22937;SDS011;11634;42.734;23.298;2024-01-15T02:11:58;154.40;;;86.60;;
22937;SDS011;11634;42.734;23.298;2024-01-15T02:14:26;150.27;;;84.73;;
22937;SDS011;11634;42.734;23.298;2024-01-15T02:16:51;148.87;;;81.80;;
22937;SDS011;11634;42.734;23.298;2024-01-15T02:19:17;159.93;;;87.87;;
22937;SDS011;11634;42.734;23.298;2024-01-15T02:21:44;129.97;;;77.67;;
22937;SDS011;11634;42.734;23.298;2024-01-15T02:24:11;108.50;;;60.17;;
22937;SDS011;11634;42.734;23.298;2024-01-15T02:26:45;113.07;;;63.07;;
22937;SDS011;11634;42.734;23.298;2024-01-15T02:29:12;104.47;;;55.87;;
22937;SDS011;11634;42.734;23.298;2024-01-15T02:31:46;109.23;;;64.33;;
22937;SDS011;11634;42.734;23.298;2024-01-15T02:34:17;120.23;;;68.90;;
22937;SDS011;11634;42.734;23.298;2024-01-15T02:36:42;116.87;;;67.43;;
22937;SDS011;11634;42.734;23.298;2024-01-15T02:39:08;130.70;;;70.00;;
22937;SDS011;11634;42.734;23.298;2024-01-15T02:41:35;123.83;;;71.27;;
22937;SDS011;11634;42.734;23.298;2024-01-15T02:44:04;125.53;;;71.17;;
22937;SDS011;11634;42.734;23.298;2024-01-15T02:46:29;133.00;;;74.17;;
22937;SDS011;11634;42.734;23.298;2024-01-15T02:48:55;120.80;;;69.87;;
22937;SDS011;11634;42.734;23.298;2024-01-15T02:51:20;122.33;;;68.70;;
22937;SDS011;11634;42.734;23.298;2024-01-15T02:53:46;117.73;;;65.83;;
22937;SDS011;11634;42.734;23.298;2024-01-15T02:56:11;113.30;;;62.13;;
22937;SDS011;11634;42.734;23.298;2024-01-15T02:58:37;118.13;;;66.97;;
22937;SDS011;11634;42.734;23.298;2024-01-15T03:01:03;113.37;;;64.33;;
22937;SDS011;11634;42.734;23.298;2024-01-15T03:03:28;99.73;;;54.80;;
22937;SDS011;11634;42.734;23.298;2024-01-15T03:05:54;107.80;;;60.87;;
22937;SDS011;11634;42.734;23.298;2024-01-15T03:08:19;104.53;;;57.47;;
22937;SDS011;11634;42.734;23.298;2024-01-15T03:10:47;106.97;;;60.60;;
22937;SDS011;11634;42.734;23.298;2024-01-15T03:13:13;106.10;;;59.70;;
22937;SDS011;11634;42.734;23.298;2024-01-15T03:15:39;108.73;;;60.63;;
22937;SDS011;11634;42.734;23.298;2024-01-15T03:18:04;106.63;;;59.10;;
22937;SDS011;11634;42.734;23.298;2024-01-15T03:20:31;110.67;;;61.63;;
22937;SDS011;11634;42.734;23.298;2024-01-15T03:22:56;108.43;;;59.27;;
22937;SDS011;11634;42.734;23.298;2024-01-15T03:25:22;103.23;;;60.17;;
22937;SDS011;11634;42.734;23.298;2024-01-15T03:27:48;96.50;;;56.37;;
22937;SDS011;11634;42.734;23.298;2024-01-15T03:30:14;87.60;;;48.57;;
22937;SDS011;11634;42.734;23.298;2024-01-15T03:32:39;84.70;;;48.73;;
22937;SDS011;11634;42.734;23.298;2024-01-15T03:35:05;87.83;;;48.37;;
22937;SDS011;11634;42.734;23.298;2024-01-15T03:37:31;90.73;;;52.23;;
22937;SDS011;11634;42.734;23.298;2024-01-15T03:39:56;84.00;;;48.03;;
22937;SDS011;11634;42.734;23.298;2024-01-15T03:42:22;83.57;;;46.53;;
22937;SDS011;11634;42.734;23.298;2024-01-15T03:44:48;79.77;;;44.80;;
22937;SDS011;11634;42.734;23.298;2024-01-15T03:47:13;82.80;;;47.00;;
22937;SDS011;11634;42.734;23.298;2024-01-15T03:49:39;89.20;;;51.47;;
22937;SDS011;11634;42.734;23.298;2024-01-15T03:52:05;92.50;;;50.17;;
22937;SDS011;11634;42.734;23.298;2024-01-15T03:54:30;89.30;;;50.53;;
22937;SDS011;11634;42.734;23.298;2024-01-15T03:56:56;90.63;;;48.80;;
22937;SDS011;11634;42.734;23.298;2024-01-15T03:59:21;84.60;;;48.97;;
22937;SDS011;11634;42.734;23.298;2024-01-15T04:01:50;84.00;;;50.00;;
22937;SDS011;11634;42.734;23.298;2024-01-15T04:04:18;94.60;;;49.97;;
22937;SDS011;11634;42.734;23.298;2024-01-15T04:06:44;80.10;;;46.90;;
22937;SDS011;11634;42.734;23.298;2024-01-15T04:09:11;80.43;;;46.60;;
22937;SDS011;11634;42.734;23.298;2024-01-15T04:11:37;82.43;;;48.60;;
22937;SDS011;11634;42.734;23.298;2024-01-15T04:14:02;91.83;;;51.63;;
22937;SDS011;11634;42.734;23.298;2024-01-15T04:16:28;82.40;;;48.23;;
22937;SDS011;11634;42.734;23.298;2024-01-15T04:18:53;79.27;;;48.60;;
22937;SDS011;11634;42.734;23.298;2024-01-15T04:21:19;87.90;;;52.63;;
22937;SDS011;11634;42.734;23.298;2024-01-15T04:23:44;103.27;;;56.80;;
22937;SDS011;11634;42.734;23.298;2024-01-15T04:26:10;101.03;;;54.80;;
22937;SDS011;11634;42.734;23.298;2024-01-15T04:28:36;108.27;;;60.43;;
22937;SDS011;11634;42.734;23.298;2024-01-15T04:31:01;118.73;;;67.93;;
22937;SDS011;11634;42.734;23.298;2024-01-15T04:33:27;113.07;;;66.07;;
22937;SDS011;11634;42.734;23.298;2024-01-15T04:35:55;111.97;;;64.13;;
22937;SDS011;11634;42.734;23.298;2024-01-15T04:38:27;117.73;;;65.70;;
22937;SDS011;11634;42.734;23.298;2024-01-15T04:40:52;108.77;;;64.87;;
22937;SDS011;11634;42.734;23.298;2024-01-15T04:43:18;115.73;;;63.37;;
22937;SDS011;11634;42.734;23.298;2024-01-15T04:45:44;118.90;;;64.67;;
22937;SDS011;11634;42.734;23.298;2024-01-15T04:48:09;123.10;;;67.40;;
22937;SDS011;11634;42.734;23.298;2024-01-15T04:50:35;133.30;;;74.60;;
22937;SDS011;11634;42.734;23.298;2024-01-15T04:53:00;137.93;;;74.17;;
22937;SDS011;11634;42.734;23.298;2024-01-15T04:55:26;148.47;;;86.37;;
22937;SDS011;11634;42.734;23.298;2024-01-15T05:00:29;152.77;;;85.23;;
22937;SDS011;11634;42.734;23.298;2024-01-15T05:02:54;162.37;;;89.10;;
22937;SDS011;11634;42.734;23.298;2024-01-15T05:05:21;157.07;;;86.43;;
22937;SDS011;11634;42.734;23.298;2024-01-15T05:07:46;137.33;;;74.67;;
22937;SDS011;11634;42.734;23.298;2024-01-15T05:10:12;152.97;;;81.23;;
22937;SDS011;11634;42.734;23.298;2024-01-15T05:12:39;124.90;;;73.50;;
22937;SDS011;11634;42.734;23.298;2024-01-15T05:15:04;127.57;;;72.00;;
22937;SDS011;11634;42.734;23.298;2024-01-15T05:17:30;121.57;;;65.93;;
22937;SDS011;11634;42.734;23.298;2024-01-15T05:19:56;112.03;;;61.83;;
22937;SDS011;11634;42.734;23.298;2024-01-15T05:22:21;106.87;;;59.37;;
22937;SDS011;11634;42.734;23.298;2024-01-15T05:24:49;86.53;;;49.73;;
22937;SDS011;11634;42.734;23.298;2024-01-15T05:27:15;101.70;;;58.07;;
22937;SDS011;11634;42.734;23.298;2024-01-15T05:29:41;102.77;;;59.47;;
22937;SDS011;11634;42.734;23.298;2024-01-15T05:32:06;113.50;;;64.07;;
22937;SDS011;11634;42.734;23.298;2024-01-15T05:34:44;99.20;;;58.17;;
22937;SDS011;11634;42.734;23.298;2024-01-15T05:37:09;97.57;;;56.80;;
22937;SDS011;11634;42.734;23.298;2024-01-15T05:39:35;107.90;;;60.13;;
22937;SDS011;11634;42.734;23.298;2024-01-15T05:42:00;103.30;;;58.37;;
22937;SDS011;11634;42.734;23.298;2024-01-15T05:44:26;104.10;;;59.30;;
22937;SDS011;11634;42.734;23.298;2024-01-15T05:46:52;88.93;;;52.33;;
22937;SDS011;11634;42.734;23.298;2024-01-15T05:49:20;91.57;;;54.80;;
22937;SDS011;11634;42.734;23.298;2024-01-15T05:51:46;100.33;;;57.13;;
22937;SDS011;11634;42.734;23.298;2024-01-15T05:54:11;93.73;;;53.40;;
22937;SDS011;11634;42.734;23.298;2024-01-15T05:56:37;89.67;;;54.07;;
22937;SDS011;11634;42.734;23.298;2024-01-15T05:59:02;86.47;;;52.20;;
22937;SDS011;11634;42.734;23.298;2024-01-15T06:01:28;83.53;;;49.37;;
22937;SDS011;11634;42.734;23.298;2024-01-15T06:03:53;94.10;;;51.57;;
22937;SDS011;11634;42.734;23.298;2024-01-15T06:06:19;118.47;;;68.67;;
22937;SDS011;11634;42.734;23.298;2024-01-15T06:08:44;144.17;;;85.23;;
22937;SDS011;11634;42.734;23.298;2024-01-15T06:11:10;148.93;;;86.83;;
22937;SDS011;11634;42.734;23.298;2024-01-15T06:13:35;152.43;;;88.37;;
22937;SDS011;11634;42.734;23.298;2024-01-15T06:16:01;145.77;;;81.30;;
22937;SDS011;11634;42.734;23.298;2024-01-15T06:18:36;137.77;;;78.63;;
22937;SDS011;11634;42.734;23.298;2024-01-15T06:21:02;144.07;;;80.73;;
22937;SDS011;11634;42.734;23.298;2024-01-15T06:23:27;144.10;;;84.40;;
22937;SDS011;11634;42.734;23.298;2024-01-15T06:25:53;142.13;;;80.73;;
22937;SDS011;11634;42.734;23.298;2024-01-15T06:28:18;132.00;;;80.07;;
22937;SDS011;11634;42.734;23.298;2024-01-15T06:30:44;144.60;;;81.17;;
22937;SDS011;11634;42.734;23.298;2024-01-15T06:33:11;132.83;;;81.07;;
22937;SDS011;11634;42.734;23.298;2024-01-15T06:35:36;104.93;;;61.53;;
22937;SDS011;11634;42.734;23.298;2024-01-15T06:38:02;105.73;;;61.03;;
22937;SDS011;11634;42.734;23.298;2024-01-15T06:40:28;95.27;;;56.07;;
22937;SDS011;11634;42.734;23.298;2024-01-15T06:42:53;91.27;;;52.83;;
22937;SDS011;11634;42.734;23.298;2024-01-15T06:45:18;90.03;;;53.97;;
22937;SDS011;11634;42.734;23.298;2024-01-15T06:47:44;96.03;;;54.30;;
22937;SDS011;11634;42.734;23.298;2024-01-15T06:50:09;99.23;;;55.70;;
22937;SDS011;11634;42.734;23.298;2024-01-15T06:52:35;92.03;;;52.03;;
22937;SDS011;11634;42.734;23.298;2024-01-15T06:55:00;87.33;;;50.90;;
22937;SDS011;11634;42.734;23.298;2024-01-15T06:57:27;87.67;;;53.27;;
22937;SDS011;11634;42.734;23.298;2024-01-15T06:59:53;91.33;;;53.43;;
22937;SDS011;11634;42.734;23.298;2024-01-15T07:02:18;92.97;;;53.20;;
22937;SDS011;11634;42.734;23.298;2024-01-15T07:04:44;81.13;;;48.33;;
22937;SDS011;11634;42.734;23.298;2024-01-15T07:07:09;84.93;;;48.83;;
22937;SDS011;11634;42.734;23.298;2024-01-15T07:09:35;75.67;;;41.30;;
22937;SDS011;11634;42.734;23.298;2024-01-15T07:12:00;70.33;;;42.03;;
22937;SDS011;11634;42.734;23.298;2024-01-15T07:14:26;72.50;;;43.60;;
22937;SDS011;11634;42.734;23.298;2024-01-15T07:16:51;72.47;;;41.60;;
22937;SDS011;11634;42.734;23.298;2024-01-15T07:19:17;74.10;;;45.70;;
22937;SDS011;11634;42.734;23.298;2024-01-15T07:21:43;79.00;;;46.50;;
22937;SDS011;11634;42.734;23.298;2024-01-15T07:24:09;75.47;;;45.83;;
22937;SDS011;11634;42.734;23.298;2024-01-15T07:26:36;73.93;;;43.90;;
22937;SDS011;11634;42.734;23.298;2024-01-15T07:29:02;79.33;;;46.30;;
22937;SDS011;11634;42.734;23.298;2024-01-15T07:31:28;74.33;;;47.73;;
22937;SDS011;11634;42.734;23.298;2024-01-15T07:33:54;80.43;;;50.17;;
22937;SDS011;11634;42.734;23.298;2024-01-15T07:36:19;77.03;;;47.50;;
22937;SDS011;11634;42.734;23.298;2024-01-15T07:38:45;83.10;;;48.67;;
22937;SDS011;11634;42.734;23.298;2024-01-15T07:41:10;87.63;;;51.57;;
22937;SDS011;11634;42.734;23.298;2024-01-15T07:43:36;89.60;;;54.53;;
22937;SDS011;11634;42.734;23.298;2024-01-15T07:46:01;100.43;;;57.60;;
22937;SDS011;11634;42.734;23.298;2024-01-15T07:48:27;99.73;;;53.73;;
22937;SDS011;11634;42.734;23.298;2024-01-15T07:50:54;88.43;;;51.43;;
22937;SDS011;11634;42.734;23.298;2024-01-15T07:53:20;84.97;;;49.90;;
22937;SDS011;11634;42.734;23.298;2024-01-15T07:55:45;81.20;;;47.80;;
22937;SDS011;11634;42.734;23.298;2024-01-15T07:58:11;84.77;;;49.20;;
22937;SDS011;11634;42.734;23.298;2024-01-15T08:00:37;57.13;;;35.77;;
22937;SDS011;11634;42.734;23.298;2024-01-15T08:03:02;70.00;;;41.83;;
22937;SDS011;11634;42.734;23.298;2024-01-15T08:05:28;92.67;;;63.70;;
22937;SDS011;11634;42.734;23.298;2024-01-15T08:07:53;79.53;;;46.20;;
22937;SDS011;11634;42.734;23.298;2024-01-15T08:10:19;69.13;;;41.00;;
22937;SDS011;11634;42.734;23.298;2024-01-15T08:12:46;73.97;;;45.87;;
22937;SDS011;11634;42.734;23.298;2024-01-15T08:15:12;82.80;;;48.80;;
22937;SDS011;11634;42.734;23.298;2024-01-15T08:17:39;84.10;;;51.03;;
22937;SDS011;11634;42.734;23.298;2024-01-15T08:20:05;88.47;;;50.23;;
22937;SDS011;11634;42.734;23.298;2024-01-15T08:22:30;90.17;;;52.27;;
22937;SDS011;11634;42.734;23.298;2024-01-15T08:24:56;93.93;;;55.17;;
22937;SDS011;11634;42.734;23.298;2024-01-15T08:27:21;85.00;;;51.33;;
22937;SDS011;11634;42.734;23.298;2024-01-15T08:29:47;90.60;;;52.50;;
22937;SDS011;11634;42.734;23.298;2024-01-15T08:32:12;89.70;;;52.77;;
22937;SDS011;11634;42.734;23.298;2024-01-15T08:34:40;80.23;;;47.73;;
22937;SDS011;11634;42.734;23.298;2024-01-15T08:37:07;71.93;;;46.77;;
22937;SDS011;11634;42.734;23.298;2024-01-15T08:39:33;76.43;;;47.27;;
22937;SDS011;11634;42.734;23.298;2024-01-15T08:41:58;73.60;;;43.70;;
22937;SDS011;11634;42.734;23.298;2024-01-15T08:44:24;66.73;;;43.97;;
22937;SDS011;11634;42.734;23.298;2024-01-15T08:46:52;70.20;;;44.50;;
22937;SDS011;11634;42.734;23.298;2024-01-15T08:49:19;76.73;;;45.47;;
22937;SDS011;11634;42.734;23.298;2024-01-15T08:51:45;74.53;;;47.13;;
22937;SDS011;11634;42.734;23.298;2024-01-15T08:54:12;73.63;;;45.23;;
22937;SDS011;11634;42.734;23.298;2024-01-15T08:56:38;76.33;;;46.57;;
22937;SDS011;11634;42.734;23.298;2024-01-15T08:59:05;73.70;;;47.37;;
22937;SDS011;11634;42.734;23.298;2024-01-15T09:01:30;79.43;;;47.23;;
22937;SDS011;11634;42.734;23.298;2024-01-15T09:03:56;83.30;;;50.47;;
22937;SDS011;11634;42.734;23.298;2024-01-15T09:06:21;90.63;;;54.73;;
22937;SDS011;11634;42.734;23.298;2024-01-15T09:08:47;84.80;;;53.23;;
22937;SDS011;11634;42.734;23.298;2024-01-15T09:11:14;92.87;;;54.53;;
22937;SDS011;11634;42.734;23.298;2024-01-15T09:13:40;88.47;;;55.80;;
22937;SDS011;11634;42.734;23.298;2024-01-15T09:16:06;91.17;;;54.70;;
22937;SDS011;11634;42.734;23.298;2024-01-15T09:18:32;94.47;;;58.47;;
22937;SDS011;11634;42.734;23.298;2024-01-15T09:20:57;85.67;;;53.93;;
22937;SDS011;11634;42.734;23.298;2024-01-15T09:23:23;83.60;;;53.53;;
22937;SDS011;11634;42.734;23.298;2024-01-15T09:25:49;74.60;;;48.17;;
22937;SDS011;11634;42.734;23.298;2024-01-15T09:28:15;79.57;;;48.43;;
22937;SDS011;11634;42.734;23.298;2024-01-15T09:30:40;75.53;;;46.60;;
22937;SDS011;11634;42.734;23.298;2024-01-15T09:33:06;81.27;;;48.20;;
22937;SDS011;11634;42.734;23.298;2024-01-15T09:35:31;88.83;;;50.07;;
22937;SDS011;11634;42.734;23.298;2024-01-15T09:37:57;88.93;;;50.80;;
22937;SDS011;11634;42.734;23.298;2024-01-15T09:40:22;84.97;;;51.27;;
22937;SDS011;11634;42.734;23.298;2024-01-15T09:42:49;89.30;;;52.87;;
22937;SDS011;11634;42.734;23.298;2024-01-15T09:45:15;88.67;;;50.50;;
22937;SDS011;11634;42.734;23.298;2024-01-15T09:47:40;88.13;;;51.47;;
22937;SDS011;11634;42.734;23.298;2024-01-15T09:50:07;80.90;;;53.27;;
22937;SDS011;11634;42.734;23.298;2024-01-15T09:52:32;84.93;;;51.53;;
22937;SDS011;11634;42.734;23.298;2024-01-15T09:55:01;80.60;;;50.60;;
22937;SDS011;11634;42.734;23.298;2024-01-15T09:57:28;86.90;;;51.90;;
22937;SDS011;11634;42.734;23.298;2024-01-15T09:59:56;78.43;;;50.07;;
22937;SDS011;11634;42.734;23.298;2024-01-15T10:02:24;82.67;;;51.83;;
22937;SDS011;11634;42.734;23.298;2024-01-15T10:04:50;82.37;;;50.47;;
22937;SDS011;11634;42.734;23.298;2024-01-15T10:07:15;79.13;;;49.27;;
22937;SDS011;11634;42.734;23.298;2024-01-15T10:09:44;78.93;;;49.03;;
22937;SDS011;11634;42.734;23.298;2024-01-15T10:12:11;77.47;;;48.53;;
22937;SDS011;11634;42.734;23.298;2024-01-15T10:14:36;73.05;;;46.92;;
22937;SDS011;11634;42.734;23.298;2024-01-15T10:17:11;80.78;;;50.03;;
22937;SDS011;11634;42.734;23.298;2024-01-15T10:19:37;76.05;;;45.15;;
22937;SDS011;11634;42.734;23.298;2024-01-15T10:22:02;67.25;;;43.58;;
22937;SDS011;11634;42.734;23.298;2024-01-15T10:24:28;58.23;;;38.30;;
22937;SDS011;11634;42.734;23.298;2024-01-15T10:27:04;62.30;;;40.70;;
22937;SDS011;11634;42.734;23.298;2024-01-15T10:29:30;50.47;;;33.60;;
22937;SDS011;11634;42.734;23.298;2024-01-15T10:31:55;57.72;;;36.78;;
22937;SDS011;11634;42.734;23.298;2024-01-15T10:34:21;58.45;;;36.22;;
22937;SDS011;11634;42.734;23.298;2024-01-15T10:36:46;59.72;;;36.53;;
22937;SDS011;11634;42.734;23.298;2024-01-15T10:39:14;46.45;;;30.83;;
22937;SDS011;11634;42.734;23.298;2024-01-15T10:41:40;46.47;;;29.38;;
22937;SDS011;11634;42.734;23.298;2024-01-15T10:44:05;42.00;;;28.20;;
22937;SDS011;11634;42.734;23.298;2024-01-15T10:46:31;43.40;;;28.08;;
22937;SDS011;11634;42.734;23.298;2024-01-15T10:48:57;37.22;;;24.80;;
22937;SDS011;11634;42.734;23.298;2024-01-15T10:51:23;28.05;;;18.88;;
22937;SDS011;11634;42.734;23.298;2024-01-15T10:53:51;25.25;;;18.15;;
22937;SDS011;11634;42.734;23.298;2024-01-15T10:56:17;29.77;;;18.10;;
22937;SDS011;11634;42.734;23.298;2024-01-15T10:58:43;26.48;;;18.48;;
22937;SDS011;11634;42.734;23.298;2024-01-15T11:01:10;26.77;;;16.50;;
22937;SDS011;11634;42.734;23.298;2024-01-15T11:03:38;20.20;;;14.23;;
22937;SDS011;11634;42.734;23.298;2024-01-15T11:06:15;24.50;;;14.73;;
22937;SDS011;11634;42.734;23.298;2024-01-15T11:08:42;19.90;;;13.70;;
22937;SDS011;11634;42.734;23.298;2024-01-15T11:11:07;19.48;;;13.52;;
22937;SDS011;11634;42.734;23.298;2024-01-15T11:18:28;20.65;;;13.80;;
22937;SDS011;11634;42.734;23.298;2024-01-15T11:23:43;20.98;;;13.38;;
22937;SDS011;11634;42.734;23.298;2024-01-15T11:28:57;25.25;;;13.93;;
22937;SDS011;11634;42.734;23.298;2024-01-15T11:31:56;22.42;;;14.13;;
22937;SDS011;11634;42.734;23.298;2024-01-15T11:34:15;24.42;;;15.05;;
22937;SDS011;11634;42.734;23.298;2024-01-15T11:42:01;23.73;;;15.25;;
22937;SDS011;11634;42.734;23.298;2024-01-15T11:44:27;26.67;;;15.85;;
22937;SDS011;11634;42.734;23.298;2024-01-15T11:47:02;24.73;;;15.27;;
22937;SDS011;11634;42.734;23.298;2024-01-15T11:51:56;29.02;;;16.45;;
22937;SDS011;11634;42.734;23.298;2024-01-15T11:54:23;20.30;;;14.90;;
22937;SDS011;11634;42.734;23.298;2024-01-15T11:56:49;21.63;;;15.68;;
22937;SDS011;11634;42.734;23.298;2024-01-15T11:59:14;24.02;;;15.65;;
22937;SDS011;11634;42.734;23.298;2024-01-15T12:01:40;22.38;;;15.75;;
22937;SDS011;11634;42.734;23.298;2024-01-15T12:04:08;28.25;;;16.52;;
22937;SDS011;11634;42.734;23.298;2024-01-15T12:06:34;25.92;;;17.10;;
22937;SDS011;11634;42.734;23.298;2024-01-15T12:09:09;24.48;;;16.88;;
22937;SDS011;11634;42.734;23.298;2024-01-15T12:11:34;26.42;;;16.83;;
22937;SDS011;11634;42.734;23.298;2024-01-15T12:14:01;24.75;;;16.40;;
22937;SDS011;11634;42.734;23.298;2024-01-15T12:16:27;26.25;;;18.52;;
22937;SDS011;11634;42.734;23.298;2024-01-15T12:18:54;33.35;;;18.38;;
22937;SDS011;11634;42.734;23.298;2024-01-15T12:21:19;26.25;;;16.50;;
22937;SDS011;11634;42.734;23.298;2024-01-15T12:23:49;24.75;;;16.90;;
22937;SDS011;11634;42.734;23.298;2024-01-15T12:26:17;24.80;;;16.95;;
22937;SDS011;11634;42.734;23.298;2024-01-15T12:28:43;27.05;;;14.73;;
22937;SDS011;11634;42.734;23.298;2024-01-15T12:31:09;22.65;;;14.35;;
22937;SDS011;11634;42.734;23.298;2024-01-15T12:33:34;24.48;;;16.02;;
22937;SDS011;11634;42.734;23.298;2024-01-15T12:36:00;25.40;;;16.40;;
22937;SDS011;11634;42.734;23.298;2024-01-15T12:38:25;25.15;;;16.45;;
22937;SDS011;11634;42.734;23.298;2024-01-15T12:40:53;30.08;;;16.15;;
22937;SDS011;11634;42.734;23.298;2024-01-15T12:43:19;22.30;;;16.17;;
22937;SDS011;11634;42.734;23.298;2024-01-15T12:45:45;22.15;;;17.13;;
22937;SDS011;11634;42.734;23.298;2024-01-15T12:48:11;31.15;;;19.40;;
22937;SDS011;11634;42.734;23.298;2024-01-15T12:50:38;32.00;;;19.25;;
22937;SDS011;11634;42.734;23.298;2024-01-15T12:53:04;29.90;;;18.67;;
22937;SDS011;11634;42.734;23.298;2024-01-15T12:55:29;33.13;;;20.35;;
22937;SDS011;11634;42.734;23.298;2024-01-15T12:57:56;29.17;;;19.10;;
22937;SDS011;11634;42.734;23.298;2024-01-15T13:00:23;33.58;;;19.90;;
22937;SDS011;11634;42.734;23.298;2024-01-15T13:02:50;34.38;;;18.95;;
22937;SDS011;11634;42.734;23.298;2024-01-15T13:05:16;35.10;;;19.75;;
22937;SDS011;11634;42.734;23.298;2024-01-15T13:07:42;34.05;;;19.73;;
22937;SDS011;11634;42.734;23.298;2024-01-15T13:10:07;30.52;;;19.73;;
22937;SDS011;11634;42.734;23.298;2024-01-15T13:12:34;33.15;;;19.70;;
22937;SDS011;11634;42.734;23.298;2024-01-15T13:15:00;33.55;;;21.20;;
22937;SDS011;11634;42.734;23.298;2024-01-15T13:17:28;36.72;;;21.55;;
22937;SDS011;11634;42.734;23.298;2024-01-15T13:19:54;36.15;;;21.80;;
22937;SDS011;11634;42.734;23.298;2024-01-15T13:22:19;42.47;;;24.15;;
22937;SDS011;11634;42.734;23.298;2024-01-15T13:24:45;38.28;;;24.73;;
22937;SDS011;11634;42.734;23.298;2024-01-15T13:27:11;40.08;;;25.92;;
22937;SDS011;11634;42.734;23.298;2024-01-15T13:29:37;47.50;;;31.17;;
22937;SDS011;11634;42.734;23.298;2024-01-15T13:32:02;52.05;;;31.23;;
22937;SDS011;11634;42.734;23.298;2024-01-15T13:34:29;47.97;;;30.73;;
22937;SDS011;11634;42.734;23.298;2024-01-15T13:36:55;51.28;;;30.38;;
22937;SDS011;11634;42.734;23.298;2024-01-15T13:39:21;48.75;;;29.38;;
22937;SDS011;11634;42.734;23.298;2024-01-15T13:41:46;33.25;;;22.80;;
22937;SDS011;11634;42.734;23.298;2024-01-15T13:44:12;37.67;;;24.77;;
22937;SDS011;11634;42.734;23.298;2024-01-15T13:46:37;48.50;;;29.48;;
22937;SDS011;11634;42.734;23.298;2024-01-15T13:49:03;50.65;;;31.20;;
22937;SDS011;11634;42.734;23.298;2024-01-15T13:51:31;52.65;;;30.45;;
22937;SDS011;11634;42.734;23.298;2024-01-15T13:53:57;51.67;;;30.75;;
22937;SDS011;11634;42.734;23.298;2024-01-15T13:56:22;53.85;;;33.90;;
22937;SDS011;11634;42.734;23.298;2024-01-15T13:58:48;50.72;;;31.83;;
22937;SDS011;11634;42.734;23.298;2024-01-15T14:01:14;45.78;;;30.00;;
22937;SDS011;11634;42.734;23.298;2024-01-15T14:03:39;49.78;;;28.67;;
22937;SDS011;11634;42.734;23.298;2024-01-15T14:06:05;52.67;;;30.77;;
22937;SDS011;11634;42.734;23.298;2024-01-15T14:08:37;44.58;;;27.80;;
22937;SDS011;11634;42.734;23.298;2024-01-15T14:11:04;48.03;;;28.55;;
22937;SDS011;11634;42.734;23.298;2024-01-15T14:13:33;47.25;;;28.05;;
22937;SDS011;11634;42.734;23.298;2024-01-15T14:15:59;46.17;;;28.50;;
22937;SDS011;11634;42.734;23.298;2024-01-15T14:18:25;47.70;;;28.38;;
22937;SDS011;11634;42.734;23.298;2024-01-15T14:20:50;39.55;;;24.05;;